Quentin, Mississippi
Current Conditions -  °F | °C
As of 12:55 AM on Friday 28 Nov 2014 (Local Time) from K1R7 Reporting Station
Clear Clear  
Wind Chill:   Ceiling: Unl
Heat Index:   Visibility: 8mi
Dew Point:   Wind: 0mph
Humidity: 100%   Direction: NA
Pressure: 30.44"   Gusts: NA
Location:  31.5295°N, 90.7634°W
Report Text: K1R7 280655Z AUTO 00000KT 8SM CLR 00/00 A3044 RMK AO2
Loading
Personal Weather Stations






























Interactive Weather Map New forecast layout! Learn more

10-Day Weather Forecast

Advertisements
Track Severe Weather on mobile